Lisbon, Portugal
Current Conditions -  °F | °C
As of 11:00 AM on Saturday 25 Oct 2014 (Local Time) from LPPT Reporting Station
Clear Clear  
Wind Chill: 68°   Ceiling: Unl
Heat Index: 68°   Visibility: 6mi
Dew Point: 57°   Wind: 8mph
Humidity: 68%   Direction: 70°ENE
Pressure: 30.03"   Gusts: NA
Location:  38.72°N, 9.14°W
Report Text: LPPT 251000Z 07007KT 030V110 CAVOK 20/14 Q1017
Loading
Personal Weather Stations






























Interactive Weather Map
Tropical Storm Tracking
New forecast layout! Learn more

10-Day Weather Forecast

Advertisements
Track Severe Weather on mobile